Time;durP1;ratioP1;P1;durP2;ratioP2;P2;SDS_P1;SDS_P2;PMS_P1;PMS_P2;Temp;Humidity;BMP_temperature;BMP_pressure;BME280_temperature;BME280_humidity;BME280_pressure;Samples;Min_cycle;Max_cycle;Signal;HPM_P1;HPM_P2
2022/03/11 00:02:21;;;;;;;4.53;2.13;;;3.50;99.90;;;;;;4970255;28;20200;-91
2022/03/11 00:04:47;;;;;;;4.73;2.73;;;3.50;99.90;;;;;;4965134;28;20211;-90
2022/03/11 00:07:13;;;;;;;2.90;1.80;;;3.50;99.90;;;;;;4964069;28;20706;-91
2022/03/11 00:09:38;;;;;;;6.53;3.03;;;3.50;99.90;;;;;;4967226;28;20319;-92
2022/03/11 00:12:06;;;;;;;5.63;2.60;;;3.50;99.90;;;;;;4962379;28;20611;-91
2022/03/11 00:14:32;;;;;;;2.70;2.50;;;3.50;99.90;;;;;;4963758;28;20192;-91
2022/03/11 00:16:58;;;;;;;3.70;2.97;;;3.50;99.90;;;;;;4986923;28;20192;-90
2022/03/11 00:19:23;;;;;;;2.23;2.07;;;3.50;99.90;;;;;;4969231;28;20252;-92
2022/03/11 00:21:49;;;;;;;2.80;2.30;;;3.50;99.90;;;;;;4965088;28;20224;-91
2022/03/11 00:24:15;;;;;;;1.93;1.83;;;3.50;99.90;;;;;;4962763;28;20219;-91
2022/03/11 00:26:41;;;;;;;3.10;1.70;;;3.60;99.90;;;;;;4990543;28;20681;-92
2022/03/11 00:29:07;;;;;;;3.03;2.80;;;3.70;99.90;;;;;;4968446;28;20243;-91
2022/03/11 00:31:32;;;;;;;2.07;1.97;;;3.70;99.90;;;;;;4956896;28;20652;-92
2022/03/11 00:34:01;;;;;;;2.00;1.90;;;3.70;99.90;;;;;;4964214;28;20303;-92
2022/03/11 00:36:27;;;;;;;3.00;2.47;;;3.70;99.90;;;;;;4960719;28;20228;-92
2022/03/11 00:38:53;;;;;;;7.20;3.63;;;3.80;99.90;;;;;;4961328;28;20219;-92
2022/03/11 00:41:19;;;;;;;2.33;2.13;;;3.70;99.90;;;;;;4992378;28;20274;-92
2022/03/11 00:43:45;;;;;;;4.80;2.43;;;3.60;99.90;;;;;;4975742;28;20269;-93
2022/03/11 00:46:10;;;;;;;3.60;3.07;;;3.50;99.90;;;;;;4992295;28;20218;-93
2022/03/11 00:48:36;;;;;;;4.57;2.93;;;3.50;99.90;;;;;;4965741;28;20205;-92
2022/03/11 00:51:02;;;;;;;3.20;1.60;;;3.40;99.90;;;;;;4957148;28;20212;-93
2022/03/11 00:53:28;;;;;;;2.10;2.00;;;3.30;99.90;;;;;;4972394;28;20196;-92
2022/03/11 00:55:54;;;;;;;2.97;1.33;;;3.30;99.90;;;;;;4956489;28;20208;-92
2022/03/11 00:58:21;;;;;;;1.90;1.47;;;3.30;99.90;;;;;;4971420;28;20220;-92
2022/03/11 01:00:47;;;;;;;2.23;2.03;;;3.30;99.90;;;;;;4971933;28;20220;-91
2022/03/11 01:03:13;;;;;;;2.67;2.47;;;3.40;99.90;;;;;;4962470;28;20258;-92
2022/03/11 01:05:39;;;;;;;2.97;2.33;;;3.40;99.90;;;;;;4989564;28;20302;-91
2022/03/11 01:08:05;;;;;;;5.53;3.43;;;3.40;99.90;;;;;;4966640;28;20737;-91
2022/03/11 01:10:31;;;;;;;14.27;2.40;;;3.40;99.90;;;;;;4956537;28;20303;-92
2022/03/11 01:12:57;;;;;;;2.13;2.03;;;3.50;99.90;;;;;;4934497;28;20698;-93
2022/03/11 01:15:23;;;;;;;1.53;1.43;;;3.50;99.90;;;;;;4959317;28;20311;-92
2022/03/11 01:17:48;;;;;;;1.67;1.57;;;3.50;99.90;;;;;;4953108;28;20215;-92
2022/03/11 01:20:14;;;;;;;4.40;1.97;;;3.60;99.90;;;;;;4969314;28;20210;-92
2022/03/11 01:22:41;;;;;;;2.57;2.37;;;3.60;99.90;;;;;;4985088;28;20703;-93
2022/03/11 01:25:08;;;;;;;1.57;1.47;;;3.60;99.90;;;;;;4988956;28;20220;-92
2022/03/11 01:27:36;;;;;;;4.67;3.30;;;3.60;99.90;;;;;;4989274;28;20302;-91
2022/03/11 01:30:05;;;;;;;2.53;2.43;;;3.60;99.90;;;;;;4976635;28;20220;-92
2022/03/11 01:32:31;;;;;;;4.47;4.17;;;3.60;99.90;;;;;;4972028;28;20208;-92
2022/03/11 01:34:56;;;;;;;2.03;1.77;;;3.60;99.90;;;;;;4971686;28;20212;-93
2022/03/11 01:37:22;;;;;;;0.87;0.87;;;3.70;99.90;;;;;;4971679;28;20217;-92
2022/03/11 01:39:48;;;;;;;2.47;2.27;;;3.70;99.90;;;;;;4971408;28;20336;-93
2022/03/11 01:42:14;;;;;;;3.17;2.97;;;3.70;99.90;;;;;;4955329;28;20720;-92
2022/03/11 01:44:39;;;;;;;2.27;2.07;;;3.60;99.90;;;;;;4954601;28;20543;-93
2022/03/11 01:47:07;;;;;;;1.97;1.40;;;3.60;99.90;;;;;;4955368;28;20196;-92
2022/03/11 01:49:34;;;;;;;2.77;2.57;;;3.50;99.90;;;;;;4970316;28;20220;-92
2022/03/11 01:52:00;;;;;;;7.83;2.37;;;3.60;99.90;;;;;;4970673;28;20236;-93
2022/03/11 01:54:26;;;;;;;1.67;1.57;;;3.60;99.90;;;;;;4953446;28;20287;-92
2022/03/11 01:56:52;;;;;;;1.33;1.33;;;3.50;99.90;;;;;;4954553;28;20224;-91
2022/03/11 01:59:18;;;;;;;1.20;1.13;;;3.50;99.90;;;;;;4955283;28;20216;-92
2022/03/11 02:01:43;;;;;;;1.40;1.30;;;3.50;99.90;;;;;;4955230;28;20221;-93
2022/03/11 02:04:09;;;;;;;2.20;2.10;;;3.50;99.90;;;;;;4973968;28;20234;-93
2022/03/11 02:06:36;;;;;;;1.20;1.20;;;3.50;99.90;;;;;;4965008;28;20297;-93
2022/03/11 02:09:03;;;;;;;1.17;0.97;;;3.50;99.90;;;;;;4969486;28;20299;-92
2022/03/11 02:11:29;;;;;;;1.83;1.73;;;3.40;99.90;;;;;;4972258;28;20891;-92
2022/03/11 02:13:57;;;;;;;4.17;1.93;;;3.40;99.90;;;;;;4959084;28;20195;-92
2022/03/11 02:16:31;;;;;;;1.63;1.53;;;3.30;99.90;;;;;;4989780;28;20625;-92
2022/03/11 02:18:58;;;;;;;1.60;1.50;;;3.40;99.90;;;;;;4979252;28;21259;-92
2022/03/11 02:21:27;;;;;;;1.90;1.80;;;3.40;99.90;;;;;;4983221;28;20270;-93
2022/03/11 02:23:58;;;;;;;2.90;2.10;;;3.30;99.90;;;;;;4968807;28;21342;-92
2022/03/11 02:26:27;;;;;;;1.00;1.00;;;3.40;99.90;;;;;;4998679;28;20254;-92
2022/03/11 02:28:55;;;;;;;2.70;2.57;;;3.40;99.90;;;;;;4983155;28;20260;-93
2022/03/11 02:31:22;;;;;;;3.03;2.83;;;3.40;99.90;;;;;;4969746;28;20285;-91
2022/03/11 02:33:48;;;;;;;2.03;1.93;;;3.50;99.90;;;;;;4988518;28;20322;-92
2022/03/11 02:36:14;;;;;;;1.90;1.50;;;3.40;99.90;;;;;;4975751;28;20281;-92
2022/03/11 02:38:40;;;;;;;1.33;1.23;;;3.40;99.90;;;;;;4991242;28;20232;-92
2022/03/11 02:41:07;;;;;;;0.70;0.70;;;3.40;99.90;;;;;;4983225;28;21306;-91
2022/03/11 02:43:33;;;;;;;2.17;2.07;;;3.40;99.90;;;;;;4986602;28;20227;-93
2022/03/11 02:45:59;;;;;;;1.30;1.30;;;3.30;99.90;;;;;;4980935;28;20247;-93
2022/03/11 02:48:25;;;;;;;0.77;0.70;;;3.30;99.90;;;;;;4964181;28;20208;-91
2022/03/11 02:50:51;;;;;;;1.17;1.17;;;3.30;99.90;;;;;;4970116;28;20215;-91
2022/03/11 02:53:16;;;;;;;2.10;1.57;;;3.30;99.90;;;;;;4988906;28;20519;-91
2022/03/11 02:55:43;;;;;;;1.30;1.30;;;3.20;99.90;;;;;;4972193;28;20290;-92
2022/03/11 02:58:08;;;;;;;3.13;2.13;;;3.20;99.90;;;;;;4972442;28;20223;-93
2022/03/11 03:00:34;;;;;;;3.67;3.37;;;3.20;99.90;;;;;;4973095;28;20216;-93
2022/03/11 03:03:00;;;;;;;1.10;1.10;;;3.20;99.90;;;;;;4957750;28;20261;-94
2022/03/11 03:05:26;;;;;;;2.50;0.53;;;3.10;99.90;;;;;;4941360;28;20311;-94
2022/03/11 03:07:52;;;;;;;1.17;1.13;;;3.20;99.90;;;;;;4941980;28;20191;-94
2022/03/11 03:10:18;;;;;;;1.17;1.17;;;3.20;99.90;;;;;;4967498;28;20227;-94
2022/03/11 03:12:43;;;;;;;1.30;0.80;;;3.30;99.90;;;;;;4990433;28;20718;-93
2022/03/11 03:15:10;;;;;;;1.27;1.27;;;3.20;99.90;;;;;;4941598;28;20247;-94
2022/03/11 03:17:36;;;;;;;1.63;1.53;;;3.20;99.90;;;;;;4982114;28;20192;-91
2022/03/11 03:20:04;;;;;;;0.40;0.40;;;3.20;99.90;;;;;;4991800;28;20219;-92
2022/03/11 03:22:30;;;;;;;1.73;1.10;;;3.30;99.90;;;;;;5000037;28;20309;-94
2022/03/11 03:24:56;;;;;;;1.47;1.43;;;3.30;99.90;;;;;;4995124;28;20290;-94
2022/03/11 03:27:22;;;;;;;0.87;0.87;;;3.20;99.90;;;;;;4956260;28;20215;-93
2022/03/11 03:29:48;;;;;;;0.47;0.47;;;3.20;99.90;;;;;;4956428;28;20748;-94
2022/03/11 03:32:13;;;;;;;1.83;1.73;;;3.20;99.90;;;;;;4971690;28;20195;-93
2022/03/11 03:34:39;;;;;;;0.97;0.60;;;3.10;99.90;;;;;;4972154;28;20630;-94
2022/03/11 03:37:07;;;;;;;1.67;1.43;;;3.10;99.90;;;;;;4956883;28;20227;-92
2022/03/11 03:39:34;;;;;;;3.97;1.17;;;3.00;99.90;;;;;;4999437;28;20655;-91
2022/03/11 03:42:00;;;;;;;1.93;1.50;;;3.10;99.90;;;;;;4984867;28;20248;-92
2022/03/11 03:44:26;;;;;;;1.30;1.10;;;3.00;99.90;;;;;;4978200;28;20200;-93
2022/03/11 03:46:52;;;;;;;2.10;1.83;;;3.00;99.90;;;;;;4977818;28;20563;-91
2022/03/11 03:49:18;;;;;;;1.57;1.47;;;2.90;99.90;;;;;;4983491;28;20238;-92
2022/03/11 03:51:44;;;;;;;1.00;1.00;;;2.90;99.90;;;;;;4967670;28;20734;-93
2022/03/11 03:54:10;;;;;;;2.30;1.20;;;2.90;99.90;;;;;;4943692;28;20231;-93
2022/03/11 03:56:42;;;;;;;1.87;1.77;;;2.90;99.90;;;;;;4972984;28;20254;-93
2022/03/11 03:59:09;;;;;;;1.87;1.77;;;2.80;99.90;;;;;;4984360;28;20183;-93
2022/03/11 04:01:36;;;;;;;1.10;1.10;;;2.80;99.90;;;;;;4993776;28;20267;-93
2022/03/11 04:04:03;;;;;;;3.07;1.97;;;2.80;99.90;;;;;;4992311;28;20216;-91
2022/03/11 04:06:30;;;;;;;1.53;1.43;;;2.80;99.90;;;;;;4986262;28;20219;-92
2022/03/11 04:08:57;;;;;;;1.23;1.23;;;2.80;99.90;;;;;;5002668;28;20207;-93
2022/03/11 04:11:26;;;;;;;1.80;1.70;;;2.90;99.90;;;;;;4976062;28;20187;-92
2022/03/11 04:13:53;;;;;;;3.70;2.03;;;2.80;99.90;;;;;;4977887;28;20535;-93
2022/03/11 04:16:19;;;;;;;8.70;3.27;;;2.80;99.90;;;;;;4994629;28;20220;-92
2022/03/11 04:18:46;;;;;;;2.20;1.47;;;2.80;99.90;;;;;;4985188;28;20250;-93
2022/03/11 04:21:12;;;;;;;2.27;1.97;;;2.70;99.90;;;;;;4981850;28;21111;-93
2022/03/11 04:23:38;;;;;;;5.90;3.03;;;2.60;99.90;;;;;;4986260;28;20226;-92
2022/03/11 04:26:04;;;;;;;1.70;1.70;;;2.60;99.90;;;;;;4984629;28;20187;-93
2022/03/11 04:28:30;;;;;;;4.10;1.83;;;2.70;99.90;;;;;;5001745;28;20214;-92
2022/03/11 04:30:55;;;;;;;1.33;1.23;;;2.70;99.90;;;;;;4982266;28;20360;-92
2022/03/11 04:33:22;;;;;;;3.20;2.63;;;2.60;99.90;;;;;;4959280;28;20227;-93
2022/03/11 04:35:47;;;;;;;1.13;1.03;;;2.60;99.90;;;;;;4978657;28;20234;-92
2022/03/11 04:38:13;;;;;;;1.33;1.13;;;2.70;99.90;;;;;;4972086;28;20199;-92
2022/03/11 04:40:39;;;;;;;4.03;1.67;;;2.60;99.90;;;;;;4988125;28;20223;-90
2022/03/11 04:43:05;;;;;;;2.90;2.57;;;2.70;99.90;;;;;;4972902;28;20291;-93
2022/03/11 04:45:31;;;;;;;4.57;2.73;;;2.70;99.90;;;;;;4958833;28;20227;-92
2022/03/11 04:47:57;;;;;;;2.20;2.00;;;2.60;99.90;;;;;;4935266;28;20212;-91
2022/03/11 04:50:22;;;;;;;2.40;2.30;;;2.60;99.90;;;;;;4974280;28;20195;-92
2022/03/11 04:52:48;;;;;;;1.53;1.43;;;2.60;99.90;;;;;;4959630;28;20216;-93
2022/03/11 04:55:16;;;;;;;0.73;0.73;;;2.60;99.90;;;;;;4969211;28;20219;-93
2022/03/11 04:57:45;;;;;;;1.77;1.67;;;2.60;99.90;;;;;;4977078;28;20207;-93
2022/03/11 05:00:12;;;;;;;4.60;4.27;;;2.60;99.90;;;;;;4997633;28;20208;-92
2022/03/11 05:02:44;;;;;;;1.80;1.70;;;2.60;99.90;;;;;;4988332;28;20194;-92
2022/03/11 05:05:14;;;;;;;0.80;0.80;;;2.60;99.90;;;;;;5005823;28;20178;-91
2022/03/11 05:07:41;;;;;;;6.20;2.97;;;2.60;99.90;;;;;;4987196;28;20843;-92
2022/03/11 05:10:09;;;;;;;0.90;0.90;;;2.60;99.90;;;;;;4982156;28;20218;-91
2022/03/11 05:12:37;;;;;;;3.60;2.27;;;2.60;99.90;;;;;;4966837;28;20230;-90
2022/03/11 05:15:04;;;;;;;2.33;2.23;;;2.60;99.90;;;;;;4975200;28;20216;-92
2022/03/11 05:17:31;;;;;;;4.10;1.00;;;2.60;99.90;;;;;;4959037;28;20310;-91
2022/03/11 05:19:57;;;;;;;1.43;0.67;;;2.60;99.90;;;;;;4973001;28;20704;-92
2022/03/11 05:22:23;;;;;;;5.33;4.87;;;2.70;99.90;;;;;;4975411;28;20324;-92
2022/03/11 05:24:48;;;;;;;1.20;1.10;;;2.60;99.90;;;;;;4994740;28;20321;-92
2022/03/11 05:27:14;;;;;;;2.67;2.57;;;2.60;99.90;;;;;;4956751;28;20204;-90
2022/03/11 05:29:40;;;;;;;1.63;1.53;;;2.60;99.90;;;;;;4965920;28;20232;-92
2022/03/11 05:32:07;;;;;;;2.43;2.23;;;2.50;99.90;;;;;;4968630;28;20201;-93
2022/03/11 05:34:34;;;;;;;1.43;1.33;;;2.50;99.90;;;;;;4967130;28;20216;-93
2022/03/11 05:37:00;;;;;;;2.90;2.80;;;2.50;99.90;;;;;;4968675;28;20691;-92
2022/03/11 05:39:26;;;;;;;1.23;1.23;;;2.50;99.90;;;;;;4966924;28;20310;-91
2022/03/11 05:41:53;;;;;;;1.47;1.37;;;2.50;99.90;;;;;;4975312;28;20211;-90
2022/03/11 05:44:19;;;;;;;3.20;3.00;;;2.40;99.90;;;;;;4972412;28;20191;-92
2022/03/11 05:46:45;;;;;;;1.70;1.70;;;2.40;99.90;;;;;;4971160;28;20241;-92
2022/03/11 05:49:12;;;;;;;2.10;2.00;;;2.50;99.90;;;;;;5003504;28;20282;-91
2022/03/11 05:51:38;;;;;;;2.37;2.17;;;2.40;99.90;;;;;;5002716;28;20212;-92
2022/03/11 05:54:05;;;;;;;1.43;1.33;;;2.40;99.90;;;;;;4972222;28;20229;-92
2022/03/11 05:56:31;;;;;;;2.10;1.03;;;2.40;99.90;;;;;;4989070;28;20219;-94
2022/03/11 05:58:57;;;;;;;2.80;2.53;;;2.50;99.90;;;;;;5004980;28;20663;-92
2022/03/11 06:01:23;;;;;;;3.53;1.63;;;2.40;99.90;;;;;;4965564;28;20218;-91
2022/03/11 06:03:49;;;;;;;3.60;2.10;;;2.50;99.90;;;;;;4968332;28;20210;-92
2022/03/11 06:06:15;;;;;;;1.93;1.83;;;2.50;99.90;;;;;;4988831;28;20646;-92
2022/03/11 06:08:42;;;;;;;1.63;1.53;;;2.50;99.90;;;;;;5003218;28;20215;-92
2022/03/11 06:11:09;;;;;;;3.57;3.37;;;2.50;99.90;;;;;;4974087;28;20194;-92
2022/03/11 06:13:35;;;;;;;0.97;0.97;;;2.60;99.90;;;;;;4969418;28;20211;-91
2022/03/11 06:16:02;;;;;;;1.17;1.17;;;2.60;99.90;;;;;;5003133;28;20568;-91
2022/03/11 06:18:29;;;;;;;1.67;1.57;;;2.60;99.90;;;;;;4984850;28;20239;-90
2022/03/11 06:20:56;;;;;;;1.13;1.03;;;2.80;99.90;;;;;;4982684;28;21075;-92
2022/03/11 06:23:22;;;;;;;3.50;3.20;;;3.00;99.90;;;;;;4984913;28;20278;-90
2022/03/11 06:25:48;;;;;;;4.53;2.33;;;3.10;99.90;;;;;;4984768;28;20192;-92
2022/03/11 06:28:14;;;;;;;2.77;2.60;;;3.20;99.90;;;;;;4986050;28;20223;-93
2022/03/11 06:30:40;;;;;;;2.70;2.50;;;3.40;99.90;;;;;;5001492;28;20286;-92
2022/03/11 06:33:06;;;;;;;2.10;1.43;;;3.40;99.90;;;;;;4984510;28;20207;-92
2022/03/11 06:35:33;;;;;;;4.57;2.03;;;3.60;99.90;;;;;;4985750;28;20305;-91
2022/03/11 06:37:59;;;;;;;3.57;2.70;;;3.70;99.90;;;;;;5002839;28;20180;-92
2022/03/11 06:40:24;;;;;;;3.27;2.33;;;3.80;99.90;;;;;;5002428;28;20742;-94
2022/03/11 06:42:51;;;;;;;1.93;1.77;;;4.00;99.90;;;;;;4987024;28;20215;-93
2022/03/11 06:45:18;;;;;;;2.07;1.30;;;4.00;99.90;;;;;;5002374;28;20226;-92
2022/03/11 06:47:46;;;;;;;2.60;2.50;;;4.10;99.90;;;;;;4958834;28;20584;-91
2022/03/11 06:50:12;;;;;;;1.03;0.90;;;4.30;99.90;;;;;;4960717;28;20192;-92
2022/03/11 06:52:38;;;;;;;2.07;1.80;;;4.40;99.90;;;;;;4942907;28;20215;-95
2022/03/11 06:55:05;;;;;;;3.37;3.17;;;4.50;99.90;;;;;;5011956;28;20223;-95
2022/03/11 06:57:31;;;;;;;1.77;1.67;;;4.70;99.90;;;;;;5002210;28;20258;-94
2022/03/11 06:59:57;;;;;;;1.80;1.23;;;4.80;99.90;;;;;;4985928;28;20207;-95
2022/03/11 07:02:23;;;;;;;1.63;1.53;;;4.80;99.90;;;;;;5001944;28;20781;-93
2022/03/11 07:04:49;;;;;;;2.40;2.27;;;5.00;99.90;;;;;;4986183;28;20171;-91
2022/03/11 07:07:15;;;;;;;2.00;1.83;;;5.00;99.90;;;;;;4985213;28;20215;-94
2022/03/11 07:09:40;;;;;;;1.70;1.57;;;5.20;99.90;;;;;;4957401;28;20223;-91
2022/03/11 07:12:06;;;;;;;2.63;2.47;;;5.20;99.90;;;;;;4981735;28;20302;-94
2022/03/11 07:14:35;;;;;;;2.73;0.83;;;5.40;99.90;;;;;;4959848;28;20188;-91
2022/03/11 07:17:05;;;;;;;3.67;3.00;;;5.40;99.90;;;;;;4992640;28;20289;-91
2022/03/11 07:19:32;;;;;;;2.27;2.10;;;5.40;99.90;;;;;;4972781;28;20239;-91
2022/03/11 07:22:02;;;;;;;2.47;2.27;;;5.30;99.90;;;;;;4976017;28;20570;-89
2022/03/11 07:24:28;;;;;;;2.03;1.83;;;5.30;99.90;;;;;;4991627;28;20215;-91
2022/03/11 07:26:54;;;;;;;1.90;1.77;;;5.40;99.90;;;;;;4975973;28;20207;-87
2022/03/11 07:29:20;;;;;;;1.83;1.77;;;5.50;99.90;;;;;;4976352;28;20190;-91
2022/03/11 07:31:46;;;;;;;3.37;1.87;;;5.40;99.90;;;;;;4975816;28;20195;-91
2022/03/11 07:34:12;;;;;;;3.10;2.57;;;5.50;99.90;;;;;;4950765;28;21334;-91
2022/03/11 07:36:38;;;;;;;6.03;3.53;;;5.70;99.90;;;;;;4986673;28;20696;-91
2022/03/11 07:39:05;;;;;;;2.50;2.30;;;5.80;99.90;;;;;;4977279;28;20241;-90
2022/03/11 07:41:32;;;;;;;2.50;2.30;;;5.90;99.90;;;;;;4984328;28;20658;-90
2022/03/11 07:43:58;;;;;;;2.13;1.93;;;6.20;99.90;;;;;;5003554;28;20184;-92
2022/03/11 07:46:24;;;;;;;10.13;3.20;;;6.50;99.90;;;;;;4985599;28;20603;-90
2022/03/11 07:48:50;;;;;;;4.40;2.97;;;6.70;99.90;;;;;;4985574;28;20250;-91
2022/03/11 07:51:16;;;;;;;3.10;2.20;;;6.60;99.90;;;;;;4972346;28;20208;-90
2022/03/11 07:53:42;;;;;;;3.33;3.13;;;6.70;99.90;;;;;;4976514;28;20226;-90
2022/03/11 07:56:10;;;;;;;3.03;2.33;;;6.70;99.90;;;;;;4960588;28;20234;-91
2022/03/11 07:58:37;;;;;;;6.33;2.77;;;6.90;99.90;;;;;;4972938;28;20216;-90
2022/03/11 08:01:04;;;;;;;4.20;2.37;;;6.80;99.90;;;;;;4983984;28;20212;-90
2022/03/11 08:03:30;;;;;;;2.97;2.77;;;6.90;99.90;;;;;;4974428;28;20704;-91
2022/03/11 08:05:56;;;;;;;6.40;1.83;;;7.10;99.90;;;;;;4955020;28;20216;-90
2022/03/11 08:08:22;;;;;;;3.10;2.47;;;7.00;99.90;;;;;;4983770;28;20228;-87
2022/03/11 08:10:49;;;;;;;2.53;1.93;;;7.10;99.90;;;;;;4966999;28;20242;-92
2022/03/11 08:13:15;;;;;;;9.00;3.73;;;7.30;99.90;;;;;;4966630;28;20302;-91
2022/03/11 08:15:40;;;;;;;9.60;4.53;;;7.60;99.90;;;;;;4957072;28;20710;-92
2022/03/11 08:18:06;;;;;;;6.70;2.30;;;7.60;99.90;;;;;;4966730;28;20582;-92
2022/03/11 08:20:32;;;;;;;4.67;2.67;;;7.50;99.90;;;;;;4963380;28;20239;-90
2022/03/11 08:22:58;;;;;;;2.93;2.67;;;7.70;99.90;;;;;;4966291;28;20264;-92
2022/03/11 08:25:26;;;;;;;5.07;4.60;;;7.70;99.90;;;;;;4964258;28;20220;-92
2022/03/11 08:27:56;;;;;;;2.53;2.27;;;7.60;99.90;;;;;;4972407;28;20227;-91
2022/03/11 08:30:24;;;;;;;4.60;3.03;;;7.60;99.90;;;;;;4983592;28;20219;-91
2022/03/11 08:32:51;;;;;;;3.37;2.50;;;7.80;99.90;;;;;;4987459;28;20231;-90
2022/03/11 08:35:17;;;;;;;3.40;2.53;;;7.90;99.90;;;;;;4990891;28;20239;-93
2022/03/11 08:37:44;;;;;;;5.17;4.23;;;7.80;99.90;;;;;;4994974;28;20208;-92
2022/03/11 08:40:10;;;;;;;5.00;3.10;;;8.00;99.90;;;;;;4986907;28;20219;-92
2022/03/11 08:42:38;;;;;;;4.57;2.13;;;8.10;99.90;;;;;;4986556;28;20220;-92
2022/03/11 08:45:05;;;;;;;2.90;2.33;;;8.10;99.90;;;;;;4999109;28;20226;-93
2022/03/11 08:47:31;;;;;;;4.20;2.67;;;8.30;99.90;;;;;;4976233;28;20624;-90
2022/03/11 08:49:57;;;;;;;3.23;2.27;;;8.20;99.90;;;;;;4991546;28;20223;-92
2022/03/11 08:52:25;;;;;;;4.23;2.53;;;8.20;99.90;;;;;;4990754;28;20212;-92
2022/03/11 08:54:52;;;;;;;6.57;2.87;;;8.30;99.90;;;;;;5002091;28;20235;-92
2022/03/11 08:57:18;;;;;;;3.50;3.17;;;8.70;99.90;;;;;;4990003;28;20644;-92
2022/03/11 08:59:45;;;;;;;3.27;1.63;;;8.70;99.90;;;;;;4989320;28;20218;-90
2022/03/11 09:02:10;;;;;;;2.87;2.67;;;8.70;99.90;;;;;;4991314;28;20230;-91
2022/03/11 09:04:36;;;;;;;4.03;2.87;;;8.70;99.90;;;;;;4989614;28;20642;-89
2022/03/11 09:07:03;;;;;;;2.50;2.30;;;8.50;99.90;;;;;;4999843;28;20278;-90
2022/03/11 09:09:30;;;;;;;5.87;2.93;;;8.30;99.90;;;;;;4990351;28;20289;-90
2022/03/11 09:11:56;;;;;;;6.87;4.40;;;8.20;99.90;;;;;;4991114;28;20235;-91
2022/03/11 09:14:22;;;;;;;5.90;3.77;;;8.30;99.90;;;;;;4974564;28;20653;-91
2022/03/11 09:16:48;;;;;;;2.27;1.07;;;8.30;99.90;;;;;;4974559;28;20211;-91
2022/03/11 09:19:13;;;;;;;12.97;2.10;;;8.40;99.90;;;;;;4983092;28;20259;-91
2022/03/11 09:21:40;;;;;;;6.20;3.70;;;8.30;99.90;;;;;;4924293;28;20379;-91
2022/03/11 09:24:06;;;;;;;3.53;2.97;;;8.60;99.90;;;;;;4956074;28;20639;-91
2022/03/11 09:26:32;;;;;;;3.83;3.53;;;8.40;99.90;;;;;;4939086;28;20673;-91
2022/03/11 09:28:58;;;;;;;3.57;3.17;;;8.50;99.90;;;;;;4962037;28;20211;-92
2022/03/11 09:31:24;;;;;;;6.63;3.67;;;8.60;99.90;;;;;;4956156;28;20216;-92
2022/03/11 09:33:50;;;;;;;5.40;2.50;;;8.50;99.90;;;;;;4945569;28;20225;-90
2022/03/11 09:36:16;;;;;;;1.70;1.43;;;8.70;99.90;;;;;;4930010;28;20228;-91
2022/03/11 09:38:42;;;;;;;3.63;3.33;;;8.60;99.90;;;;;;4950509;28;20230;-91
2022/03/11 09:41:08;;;;;;;2.87;2.17;;;9.00;99.90;;;;;;5001987;28;20184;-91
2022/03/11 09:43:36;;;;;;;2.73;2.53;;;9.10;99.90;;;;;;4976992;28;20219;-92
2022/03/11 09:46:03;;;;;;;5.60;2.70;;;9.00;99.90;;;;;;5000049;28;20788;-93
2022/03/11 09:48:30;;;;;;;8.07;2.43;;;9.20;99.90;;;;;;4999038;28;20223;-92
2022/03/11 09:50:58;;;;;;;3.87;2.20;;;9.10;99.90;;;;;;5003401;28;20219;-94
2022/03/11 09:53:24;;;;;;;2.27;2.03;;;9.10;99.90;;;;;;5000785;28;20194;-92
2022/03/11 09:55:50;;;;;;;4.27;2.83;;;9.00;99.90;;;;;;4976580;28;20212;-92
2022/03/11 09:58:15;;;;;;;10.80;5.47;;;9.00;99.90;;;;;;4961624;28;20219;-93
2022/03/11 10:00:41;;;;;;;3.40;2.20;;;9.20;99.90;;;;;;5000777;28;20306;-92
2022/03/11 10:03:07;;;;;;;4.07;3.33;;;9.50;99.90;;;;;;4999489;28;20287;-93
2022/03/11 10:05:53;;;;;;;11.07;2.40;;;9.40;99.90;;;;;;4961755;28;20195;-93
2022/03/11 10:08:33;;;;;;;2.07;1.97;;;9.30;99.90;;;;;;5000140;28;20183;-91
2022/03/11 10:11:17;;;;;;;1.67;1.57;;;9.60;99.90;;;;;;5003277;28;20230;-91
2022/03/11 10:13:42;;;;;;;5.67;2.90;;;9.90;99.90;;;;;;4993700;28;20251;-93
2022/03/11 10:16:26;;;;;;;3.07;2.87;;;10.00;99.90;;;;;;4999641;28;20259;-93
2022/03/11 10:18:56;;;;;;;2.80;2.53;;;10.20;99.90;;;;;;5009412;28;20239;-93
2022/03/11 10:21:46;;;;;;;4.63;1.90;;;10.20;99.90;;;;;;5017981;28;20215;-94
2022/03/11 10:24:15;;;;;;;3.50;3.27;;;10.40;99.90;;;;;;4995338;28;20803;-92
2022/03/11 10:26:49;;;;;;;4.17;3.77;;;10.50;99.90;;;;;;4991657;28;20215;-93
2022/03/11 10:29:24;;;;;;;7.17;6.20;;;10.40;99.90;;;;;;4991820;28;21071;-93
2022/03/11 10:31:52;;;;;;;5.13;3.53;;;10.50;99.90;;;;;;4999408;28;20230;-93
2022/03/11 10:34:24;;;;;;;2.50;2.17;;;10.40;99.90;;;;;;5001317;28;20560;-92
2022/03/11 10:36:58;;;;;;;4.03;3.13;;;10.60;99.90;;;;;;5015260;28;20237;-94
2022/03/11 10:39:25;;;;;;;6.87;4.63;;;10.60;99.90;;;;;;4999099;28;20215;-95
2022/03/11 10:41:56;;;;;;;5.33;3.27;;;10.90;99.90;;;;;;5001249;28;20317;-94
2022/03/11 10:44:27;;;;;;;5.90;3.20;;;10.70;99.90;;;;;;5002169;28;20218;-92
2022/03/11 10:47:16;;;;;;;5.03;2.93;;;10.50;99.90;;;;;;5000675;28;20912;-93
2022/03/11 10:49:48;;;;;;;8.47;3.00;;;10.40;99.90;;;;;;4976613;28;20215;-91
2022/03/11 10:52:14;;;;;;;5.27;4.70;;;10.50;99.90;;;;;;4971920;28;20246;-92
2022/03/11 10:54:43;;;;;;;5.50;2.90;;;10.50;99.90;;;;;;4967236;28;20255;-90
2022/03/11 10:57:10;;;;;;;2.90;2.60;;;10.40;99.90;;;;;;4973844;28;20227;-94
2022/03/11 10:59:36;;;;;;;4.10;2.77;;;10.60;99.90;;;;;;4958246;28;20191;-92
2022/03/11 11:02:03;;;;;;;4.87;3.90;;;10.70;99.90;;;;;;4974567;28;20185;-92
2022/03/11 11:04:29;;;;;;;12.33;3.17;;;10.70;99.90;;;;;;4957713;28;20290;-92
2022/03/11 11:06:56;;;;;;;6.47;3.03;;;10.70;99.90;;;;;;4956817;28;20231;-92
2022/03/11 11:09:23;;;;;;;5.13;3.13;;;10.60;99.90;;;;;;4972744;28;20607;-93
2022/03/11 11:11:50;;;;;;;5.30;3.77;;;10.60;99.90;;;;;;4959493;28;20238;-93
2022/03/11 11:14:16;;;;;;;4.47;4.07;;;10.40;99.90;;;;;;4975866;28;20218;-92
2022/03/11 11:16:48;;;;;;;2.57;2.37;;;10.50;99.90;;;;;;4981011;28;20630;-93
2022/03/11 11:19:19;;;;;;;6.13;3.60;;;10.70;99.90;;;;;;4985341;28;20728;-94
2022/03/11 11:21:48;;;;;;;2.20;1.77;;;10.80;99.90;;;;;;4963258;28;20677;-93
2022/03/11 11:24:20;;;;;;;2.13;2.03;;;10.90;99.90;;;;;;4981585;28;20290;-94
2022/03/11 11:26:52;;;;;;;4.17;3.67;;;10.80;99.90;;;;;;4981370;28;20208;-93
2022/03/11 11:29:32;;;;;;;6.90;3.20;;;10.80;99.90;;;;;;4981041;28;20226;-91
2022/03/11 11:31:59;;;;;;;4.50;3.53;;;10.80;99.90;;;;;;4982498;28;20549;-92
2022/03/11 11:34:27;;;;;;;4.43;2.67;;;10.90;99.90;;;;;;4963832;28;20227;-93
2022/03/11 11:36:54;;;;;;;2.43;2.27;;;10.80;99.90;;;;;;4980087;28;20231;-94
2022/03/11 11:39:23;;;;;;;4.30;3.90;;;11.00;99.90;;;;;;4980930;28;20224;-91
2022/03/11 11:41:54;;;;;;;7.43;5.30;;;10.90;99.90;;;;;;4978857;28;20220;-93
2022/03/11 11:44:32;;;;;;;5.33;4.03;;;11.00;99.90;;;;;;4973026;28;20534;-91
2022/03/11 11:47:21;;;;;;;3.03;2.60;;;10.90;99.90;;;;;;4981806;28;20214;-92
2022/03/11 11:49:54;;;;;;;2.03;1.50;;;10.90;99.90;;;;;;4998581;28;20231;-92
2022/03/11 11:52:28;;;;;;;3.20;2.70;;;10.90;99.90;;;;;;4991746;28;21112;-91
2022/03/11 11:55:11;;;;;;;2.03;1.63;;;10.70;99.90;;;;;;4998847;28;20789;-92
2022/03/11 11:57:37;;;;;;;5.37;2.57;;;10.80;99.90;;;;;;5009000;28;20246;-92
2022/03/11 12:00:08;;;;;;;4.57;2.80;;;10.80;99.90;;;;;;4999617;28;20211;-91
2022/03/11 12:02:35;;;;;;;4.90;2.73;;;11.10;99.90;;;;;;4983010;28;20183;-92
2022/03/11 12:05:50;;;;;;;5.77;4.53;;;11.10;99.90;;;;;;5000010;28;20191;-94
2022/03/11 12:08:37;;;;;;;4.27;3.17;;;11.00;99.90;;;;;;4969930;28;20243;-92
2022/03/11 12:11:03;;;;;;;4.00;3.20;;;11.00;99.90;;;;;;4989625;28;20262;-92
2022/03/11 12:13:39;;;;;;;1.87;1.73;;;11.00;99.90;;;;;;4989557;28;20306;-91
2022/03/11 12:16:24;;;;;;;5.43;3.03;;;11.10;99.90;;;;;;4992613;28;20245;-92
2022/03/11 12:18:49;;;;;;;3.37;2.87;;;11.30;99.90;;;;;;4990442;28;20223;-91
2022/03/11 12:21:28;;;;;;;5.17;4.50;;;11.20;99.90;;;;;;4955752;28;20220;-95
2022/03/11 12:23:54;;;;;;;7.03;3.40;;;11.30;99.90;;;;;;4975257;28;20211;-94
2022/03/11 12:26:34;;;;;;;3.47;3.23;;;11.20;99.90;;;;;;4975226;28;20283;-93
2022/03/11 12:28:59;;;;;;;3.07;1.80;;;11.30;99.90;;;;;;4985842;28;20187;-91
2022/03/11 12:31:25;;;;;;;5.47;2.60;;;11.30;99.90;;;;;;4968006;28;20216;-94
2022/03/11 12:33:54;;;;;;;4.57;3.30;;;11.50;99.90;;;;;;4954224;28;20278;-92
2022/03/11 12:36:25;;;;;;;6.90;4.13;;;11.50;99.90;;;;;;4976418;28;20231;-93
2022/03/11 12:38:52;;;;;;;4.90;4.30;;;11.50;99.90;;;;;;4994739;28;20319;-92
2022/03/11 12:41:27;;;;;;;4.53;2.23;;;11.70;99.90;;;;;;4978544;28;20191;-92
2022/03/11 12:43:57;;;;;;;7.50;4.33;;;11.70;99.90;;;;;;4993165;28;20691;-95
2022/03/11 12:46:23;;;;;;;5.47;2.87;;;11.70;99.90;;;;;;5001552;28;20215;-91
2022/03/11 12:48:49;;;;;;;5.47;4.40;;;11.80;99.90;;;;;;4984667;28;20569;-93
2022/03/11 12:51:21;;;;;;;7.57;3.77;;;11.50;99.90;;;;;;4978139;28;20245;-94
2022/03/11 12:53:52;;;;;;;5.07;3.30;;;11.50;99.90;;;;;;4960319;28;20212;-92
2022/03/11 12:56:21;;;;;;;7.33;2.90;;;11.50;99.90;;;;;;4977553;28;20204;-95
2022/03/11 12:58:48;;;;;;;4.43;3.80;;;11.70;99.90;;;;;;4996549;28;20310;-94